Time;durP1;ratioP1;P1;durP2;ratioP2;P2;SDS_P1;SDS_P2;PMS_P1;PMS_P2;Temp;Humidity;BMP_temperature;BMP_pressure;BME280_temperature;BME280_humidity;BME280_pressure;Samples;Min_cycle;Max_cycle;Signal;HPM_P1;HPM_P2
2021/11/12 00:04:08;;;;;;;47.17;21.70;;;;;;;;;;5098886;28;20489;-68
2021/11/12 00:12:24;;;;;;;50.50;23.47;;;;;;;;;;5098597;28;20439;-68
2021/11/12 00:14:54;;;;;;;43.57;20.70;;;;;;;;;;5099338;28;20497;-68
2021/11/12 00:17:23;;;;;;;46.73;21.93;;;;;;;;;;5098658;28;20236;-68
2021/11/12 00:19:51;;;;;;;46.27;21.83;;;;;;;;;;5098502;28;20383;-68
2021/11/12 00:22:23;;;;;;;49.57;22.07;;;;;;;;;;5098435;28;20507;-68
2021/11/12 00:24:51;;;;;;;47.10;21.07;;;;;;;;;;5098235;28;20641;-68
2021/11/12 00:27:19;;;;;;;47.43;20.80;;;;;;;;;;5098352;28;20526;-68
2021/11/12 00:29:53;;;;;;;46.40;20.23;;;;;;;;;;5098243;28;20290;-68
2021/11/12 00:32:29;;;;;;;41.17;20.83;;;;;;;;;;5098087;28;20256;-68
2021/11/12 00:40:35;;;;;;;43.90;21.77;;;;;;;;;;5068967;28;20233;-68
2021/11/12 00:43:11;;;;;;;48.73;21.50;;;;;;;;;;5098248;28;20293;-68
2021/11/12 00:45:48;;;;;;;44.43;19.40;;;;;;;;;;5097841;28;20292;-68
2021/11/12 00:48:19;;;;;;;45.60;20.57;;;;;;;;;;5098004;28;20308;-68
2021/11/12 00:53:43;;;;;;;46.17;20.70;;;;;;;;;;5082269;28;20296;-68
2021/11/12 00:56:11;;;;;;;46.97;21.83;;;;;;;;;;5098032;28;20878;-68
2021/11/12 00:58:39;;;;;;;42.93;21.23;;;;;;;;;;5097636;28;20550;-68
2021/11/12 01:01:07;;;;;;;49.10;22.43;;;;;;;;;;5097711;28;20551;-67
2021/11/12 01:03:36;;;;;;;49.40;22.43;;;;;;;;;;5097582;28;20871;-68
2021/11/12 01:06:04;;;;;;;45.47;20.47;;;;;;;;;;5097451;28;20444;-68
2021/11/12 01:08:32;;;;;;;46.77;21.50;;;;;;;;;;5096979;28;20860;-68
2021/11/12 01:11:01;;;;;;;48.57;21.77;;;;;;;;;;5097766;28;20537;-68
2021/11/12 01:13:30;;;;;;;47.57;20.60;;;;;;;;;;5097619;28;21014;-68
2021/11/12 01:15:58;;;;;;;55.13;23.07;;;;;;;;;;5097944;28;20471;-68
2021/11/12 01:18:26;;;;;;;51.40;21.50;;;;;;;;;;5100844;28;20467;-68
2021/11/12 01:20:54;;;;;;;51.53;22.40;;;;;;;;;;5101898;28;20531;-68
2021/11/12 01:23:22;;;;;;;51.87;23.80;;;;;;;;;;5101924;28;20522;-67
2021/11/12 01:25:50;;;;;;;47.43;21.17;;;;;;;;;;5101510;28;20444;-68
2021/11/12 01:28:20;;;;;;;59.00;22.37;;;;;;;;;;5101746;28;20523;-68
2021/11/12 01:30:48;;;;;;;45.20;20.73;;;;;;;;;;5101456;28;21049;-67
2021/11/12 01:33:16;;;;;;;52.37;22.33;;;;;;;;;;5101788;28;20526;-67
2021/11/12 01:35:44;;;;;;;48.73;22.23;;;;;;;;;;5101421;28;20957;-67
2021/11/12 01:38:12;;;;;;;45.63;21.20;;;;;;;;;;5101883;28;20546;-67
2021/11/12 01:40:40;;;;;;;43.33;20.73;;;;;;;;;;5101061;28;20472;-67
2021/11/12 01:43:10;;;;;;;44.73;21.57;;;;;;;;;;5101379;28;20459;-67
2021/11/12 01:45:58;;;;;;;45.43;21.43;;;;;;;;;;5101311;28;20985;-67
2021/11/12 01:48:40;;;;;;;49.13;19.13;;;;;;;;;;5101510;28;20467;-67
2021/11/12 01:51:11;;;;;;;45.07;20.17;;;;;;;;;;5100895;28;20916;-67
2021/11/12 01:53:42;;;;;;;47.13;19.20;;;;;;;;;;5101154;28;20482;-68
2021/11/12 01:56:28;;;;;;;51.00;21.57;;;;;;;;;;5101037;28;20942;-67
2021/11/12 01:59:12;;;;;;;44.20;19.03;;;;;;;;;;5100946;28;20550;-68
2021/11/12 02:01:45;;;;;;;52.00;19.17;;;;;;;;;;5100848;28;20495;-67
2021/11/12 02:04:15;;;;;;;42.00;19.43;;;;;;;;;;5101182;28;20444;-67
2021/11/12 02:06:43;;;;;;;43.43;19.57;;;;;;;;;;5100672;28;20895;-67
2021/11/12 02:09:17;;;;;;;41.30;19.90;;;;;;;;;;5100363;28;20534;-67
2021/11/12 02:11:46;;;;;;;49.10;19.33;;;;;;;;;;5101075;28;20515;-67
2021/11/12 02:14:15;;;;;;;43.80;18.97;;;;;;;;;;5100864;28;20847;-67
2021/11/12 02:16:53;;;;;;;41.50;18.97;;;;;;;;;;5101001;28;20481;-67
2021/11/12 02:19:22;;;;;;;48.03;19.63;;;;;;;;;;5100755;28;20487;-67
2021/11/12 02:22:01;;;;;;;53.80;22.20;;;;;;;;;;5100394;28;20522;-67
2021/11/12 02:24:30;;;;;;;43.70;20.23;;;;;;;;;;5100165;28;20917;-67
2021/11/12 02:26:58;;;;;;;40.47;19.27;;;;;;;;;;5100412;28;20952;-67
2021/11/12 02:29:29;;;;;;;45.17;20.60;;;;;;;;;;5099764;28;21014;-67
2021/11/12 02:31:57;;;;;;;46.03;21.57;;;;;;;;;;5101343;28;20570;-67
2021/11/12 02:34:25;;;;;;;47.80;20.20;;;;;;;;;;5101224;28;20474;-68
2021/11/12 02:36:55;;;;;;;46.87;19.43;;;;;;;;;;5100417;28;20511;-67
2021/11/12 02:39:25;;;;;;;47.63;19.73;;;;;;;;;;5099808;28;20554;-68
2021/11/12 02:41:54;;;;;;;42.80;19.97;;;;;;;;;;5099881;28;20938;-67
2021/11/12 02:44:23;;;;;;;41.50;19.00;;;;;;;;;;5100462;28;20443;-68
2021/11/12 02:46:52;;;;;;;44.73;19.50;;;;;;;;;;5100317;28;20531;-67
2021/11/12 02:49:20;;;;;;;43.70;20.37;;;;;;;;;;5100027;28;21024;-67
2021/11/12 02:51:48;;;;;;;52.30;19.67;;;;;;;;;;5099520;28;20522;-67
2021/11/12 02:54:16;;;;;;;47.97;20.20;;;;;;;;;;5099700;28;20888;-67
2021/11/12 02:56:45;;;;;;;45.07;19.57;;;;;;;;;;5099794;28;20486;-67
2021/11/12 02:59:13;;;;;;;46.67;20.50;;;;;;;;;;5100224;28;20559;-67
2021/11/12 03:01:45;;;;;;;55.10;21.07;;;;;;;;;;5099933;28;20892;-67
2021/11/12 03:04:13;;;;;;;43.97;20.63;;;;;;;;;;5100029;28;20440;-67
2021/11/12 03:06:43;;;;;;;51.17;20.87;;;;;;;;;;5099835;28;20527;-68
2021/11/12 03:09:12;;;;;;;52.33;20.63;;;;;;;;;;5099128;28;20981;-67
2021/11/12 03:11:41;;;;;;;49.70;20.23;;;;;;;;;;5099744;28;20562;-67
2021/11/12 03:14:10;;;;;;;49.03;20.93;;;;;;;;;;5100075;28;20458;-67
2021/11/12 03:16:39;;;;;;;47.90;20.40;;;;;;;;;;5100110;28;20530;-67
2021/11/12 03:19:08;;;;;;;50.93;22.40;;;;;;;;;;5099493;28;20894;-67
2021/11/12 03:21:37;;;;;;;58.37;24.30;;;;;;;;;;5099535;28;20526;-67
2021/11/12 03:24:08;;;;;;;58.07;22.73;;;;;;;;;;5099354;28;20474;-67
2021/11/12 03:26:40;;;;;;;50.67;21.53;;;;;;;;;;5099805;28;20527;-67
2021/11/12 03:29:39;;;;;;;48.30;22.13;;;;;;;;;;5100066;28;20547;-68
2021/11/12 04:02:59;;;;;;;52.50;22.13;;;;;;;;;;5096712;28;20514;-67
2021/11/12 04:42:06;;;;;;;41.73;17.53;;;;;;;;;;5097816;28;20801;-67
2021/11/12 05:09:59;;;;;;;40.17;16.60;;;;;;;;;;5097385;28;20546;-67
2021/11/12 05:45:32;;;;;;;41.60;16.40;;;;;;;;;;5097791;28;20507;-68
2021/11/12 05:51:10;;;;;;;38.43;17.10;;;;;;;;;;5034807;28;20538;-68
2021/11/12 05:56:25;;;;;;;35.60;15.57;;;;;;;;;;5097439;28;20522;-70
2021/11/12 05:58:54;;;;;;;35.17;14.50;;;;;;;;;;5097435;28;20555;-69
2021/11/12 06:01:23;;;;;;;34.60;16.07;;;;;;;;;;5097071;28;21062;-69
2021/11/12 06:03:51;;;;;;;32.00;14.73;;;;;;;;;;5096037;28;20440;-68
2021/11/12 06:06:19;;;;;;;35.30;15.40;;;;;;;;;;5098405;28;20514;-69
2021/11/12 06:08:47;;;;;;;31.97;14.90;;;;;;;;;;5096565;28;20539;-70
2021/11/12 06:11:15;;;;;;;30.13;15.10;;;;;;;;;;5100018;28;20470;-69
2021/11/12 06:13:43;;;;;;;35.30;15.80;;;;;;;;;;5100197;28;20520;-70
2021/11/12 06:16:13;;;;;;;39.07;15.43;;;;;;;;;;5098200;28;20523;-69
2021/11/12 06:18:41;;;;;;;34.27;14.37;;;;;;;;;;5103028;28;20501;-70
2021/11/12 06:21:11;;;;;;;26.67;12.37;;;;;;;;;;5100045;28;20961;-69
2021/11/12 06:23:39;;;;;;;32.57;14.53;;;;;;;;;;5100198;28;20439;-70
2021/11/12 06:26:07;;;;;;;28.73;13.97;;;;;;;;;;5100697;28;20471;-69
2021/11/12 06:28:36;;;;;;;25.00;13.23;;;;;;;;;;5100580;28;20463;-69
2021/11/12 06:31:04;;;;;;;29.43;14.60;;;;;;;;;;5100733;28;20527;-69
2021/11/12 06:33:34;;;;;;;34.80;16.00;;;;;;;;;;5100149;28;21005;-69
2021/11/12 06:36:02;;;;;;;30.87;14.30;;;;;;;;;;5100367;28;20471;-69
2021/11/12 06:38:31;;;;;;;34.10;14.73;;;;;;;;;;5099524;28;20554;-67
2021/11/12 06:41:02;;;;;;;30.07;14.50;;;;;;;;;;5091043;28;20472;-69
2021/11/12 06:43:34;;;;;;;30.27;13.80;;;;;;;;;;5099703;28;20522;-69
2021/11/12 06:51:34;;;;;;;38.60;16.83;;;;;;;;;;5098205;28;20526;-69
2021/11/12 06:54:03;;;;;;;35.20;17.43;;;;;;;;;;5099020;28;21048;-68
2021/11/12 06:56:31;;;;;;;41.40;16.93;;;;;;;;;;5099668;28;20522;-68
2021/11/12 06:58:59;;;;;;;41.57;17.17;;;;;;;;;;5100110;28;20554;-68
2021/11/12 07:01:27;;;;;;;36.13;16.90;;;;;;;;;;5099609;28;20571;-67
2021/11/12 07:03:57;;;;;;;39.03;17.50;;;;;;;;;;5099818;28;20561;-68
2021/11/12 07:06:25;;;;;;;38.73;15.40;;;;;;;;;;5098629;28;20534;-67
2021/11/12 07:08:54;;;;;;;39.13;16.63;;;;;;;;;;5099363;28;20543;-69
2021/11/12 07:11:22;;;;;;;45.13;17.47;;;;;;;;;;5086161;28;20478;-66
2021/11/12 07:13:51;;;;;;;38.07;17.13;;;;;;;;;;5092208;28;20570;-67
2021/11/12 07:16:19;;;;;;;37.63;17.67;;;;;;;;;;5088731;28;20861;-67
2021/11/12 07:18:47;;;;;;;45.53;18.13;;;;;;;;;;5097158;28;20463;-67
2021/11/12 07:21:16;;;;;;;45.93;17.07;;;;;;;;;;5099503;28;20531;-72
2021/11/12 07:24:01;;;;;;;39.23;16.00;;;;;;;;;;5095208;28;20446;-71
2021/11/12 07:26:30;;;;;;;47.40;18.03;;;;;;;;;;5099140;28;20459;-73
2021/11/12 07:28:58;;;;;;;41.10;17.80;;;;;;;;;;5093906;28;20907;-69
2021/11/12 07:31:42;;;;;;;40.77;16.23;;;;;;;;;;5087591;28;20943;-66
2021/11/12 07:34:10;;;;;;;38.00;16.53;;;;;;;;;;5098019;28;20836;-67
2021/11/12 07:36:41;;;;;;;44.03;19.83;;;;;;;;;;5097986;28;21117;-67
2021/11/12 07:39:15;;;;;;;52.00;18.20;;;;;;;;;;5095088;28;20542;-66
2021/11/12 07:42:05;;;;;;;43.33;16.97;;;;;;;;;;5098416;28;20439;-67
2021/11/12 07:44:38;;;;;;;42.57;16.30;;;;;;;;;;5096931;28;20503;-67
2021/11/12 07:47:12;;;;;;;35.23;16.70;;;;;;;;;;5092666;28;20476;-66
2021/11/12 07:49:41;;;;;;;36.20;16.37;;;;;;;;;;5100447;28;20454;-65
2021/11/12 07:52:12;;;;;;;42.80;16.30;;;;;;;;;;5100636;28;20440;-66
2021/11/12 07:54:41;;;;;;;36.17;14.57;;;;;;;;;;5090685;28;20487;-66
2021/11/12 07:57:09;;;;;;;29.33;14.17;;;;;;;;;;5098833;28;20471;-65
2021/11/12 07:59:38;;;;;;;34.87;14.57;;;;;;;;;;5098275;28;20818;-65
2021/11/12 08:02:07;;;;;;;39.90;16.23;;;;;;;;;;5090812;28;20972;-65
2021/11/12 08:04:36;;;;;;;32.33;14.63;;;;;;;;;;5092053;28;20934;-65
2021/11/12 08:07:05;;;;;;;34.33;14.67;;;;;;;;;;5089715;28;20451;-65
2021/11/12 08:09:37;;;;;;;34.00;14.97;;;;;;;;;;5097725;28;21049;-65
2021/11/12 08:12:08;;;;;;;30.03;13.93;;;;;;;;;;5097814;28;20440;-65
2021/11/12 08:14:39;;;;;;;33.40;13.63;;;;;;;;;;5099058;28;20566;-66
2021/11/12 08:17:19;;;;;;;30.10;14.47;;;;;;;;;;5095930;28;20440;-66
2021/11/12 08:19:49;;;;;;;37.23;14.90;;;;;;;;;;5098159;28;20491;-66
2021/11/12 08:22:21;;;;;;;31.27;13.60;;;;;;;;;;5097116;28;20531;-66
2021/11/12 08:24:55;;;;;;;29.10;13.70;;;;;;;;;;5087214;28;20525;-65
2021/11/12 08:30:17;;;;;;;30.20;14.20;;;;;;;;;;5071690;28;20515;-66
2021/11/12 08:32:57;;;;;;;32.57;14.10;;;;;;;;;;5097402;28;20459;-65
2021/11/12 08:35:58;;;;;;;27.60;12.83;;;;;;;;;;5095580;28;20443;-66
2021/11/12 08:38:32;;;;;;;30.53;13.67;;;;;;;;;;5097198;28;20467;-66
2021/11/12 08:41:08;;;;;;;31.80;13.73;;;;;;;;;;5097532;28;20475;-66
2021/11/12 08:43:39;;;;;;;25.40;12.90;;;;;;;;;;5097811;28;20471;-65
2021/11/12 08:46:15;;;;;;;30.63;13.20;;;;;;;;;;5097700;28;20443;-66
2021/11/12 08:48:53;;;;;;;32.57;14.93;;;;;;;;;;5096467;28;20470;-66
2021/11/12 08:51:21;;;;;;;29.93;13.00;;;;;;;;;;5096787;28;20872;-65
2021/11/12 08:53:51;;;;;;;27.53;11.70;;;;;;;;;;5096973;28;20476;-65
2021/11/12 08:56:23;;;;;;;25.47;11.87;;;;;;;;;;5097372;28;20436;-66
2021/11/12 08:58:51;;;;;;;24.93;12.97;;;;;;;;;;5097319;28;20475;-66
2021/11/12 09:01:20;;;;;;;27.73;13.10;;;;;;;;;;5096408;28;20475;-65
2021/11/12 09:03:48;;;;;;;25.13;12.10;;;;;;;;;;5096665;28;20439;-66
2021/11/12 09:06:17;;;;;;;29.33;13.10;;;;;;;;;;5090400;28;20539;-65
2021/11/12 09:08:45;;;;;;;27.97;12.90;;;;;;;;;;5094820;28;21049;-66
2021/11/12 09:11:13;;;;;;;32.67;13.70;;;;;;;;;;5096335;28;20443;-65
2021/11/12 09:13:46;;;;;;;29.67;13.77;;;;;;;;;;5094339;28;20530;-65
2021/11/12 09:16:15;;;;;;;27.53;12.77;;;;;;;;;;5097454;28;20479;-65
2021/11/12 09:18:44;;;;;;;26.33;13.17;;;;;;;;;;5096371;28;20997;-65
2021/11/12 09:21:12;;;;;;;29.07;13.63;;;;;;;;;;5104807;28;20879;-66
2021/11/12 09:23:40;;;;;;;28.00;14.40;;;;;;;;;;5103920;28;20514;-67
2021/11/12 09:26:09;;;;;;;25.97;13.07;;;;;;;;;;5106604;28;20515;-65
2021/11/12 09:28:37;;;;;;;27.30;12.97;;;;;;;;;;5102101;28;21048;-65
2021/11/12 09:31:08;;;;;;;28.97;12.57;;;;;;;;;;5106379;28;20467;-65
2021/11/12 09:33:36;;;;;;;29.23;13.77;;;;;;;;;;5102656;28;20435;-65
2021/11/12 09:36:06;;;;;;;26.27;12.47;;;;;;;;;;5106250;28;20439;-66
2021/11/12 09:38:35;;;;;;;24.17;12.03;;;;;;;;;;5107404;28;20461;-66
2021/11/12 09:41:04;;;;;;;23.90;12.13;;;;;;;;;;5108639;28;20436;-66
2021/11/12 09:43:33;;;;;;;34.90;14.37;;;;;;;;;;5106887;28;20883;-66
2021/11/12 09:46:01;;;;;;;29.73;14.13;;;;;;;;;;5104926;28;20542;-65
2021/11/12 09:48:30;;;;;;;29.57;14.37;;;;;;;;;;5109260;28;21049;-66
2021/11/12 09:50:58;;;;;;;31.73;13.90;;;;;;;;;;5106234;28;20443;-66
2021/11/12 09:53:26;;;;;;;32.33;14.67;;;;;;;;;;5106657;28;20523;-67
2021/11/12 09:55:55;;;;;;;34.27;14.73;;;;;;;;;;5108642;28;20519;-67
2021/11/12 09:58:23;;;;;;;30.90;13.53;;;;;;;;;;5108104;28;20493;-66
2021/11/12 10:00:56;;;;;;;30.40;13.20;;;;;;;;;;5107640;28;20501;-66
2021/11/12 10:03:31;;;;;;;27.37;12.30;;;;;;;;;;5106573;28;20438;-66
2021/11/12 10:06:01;;;;;;;25.63;13.83;;;;;;;;;;5105467;28;20542;-66
2021/11/12 10:08:30;;;;;;;27.83;12.20;;;;;;;;;;5109791;28;20542;-67
2021/11/12 10:11:01;;;;;;;32.13;14.20;;;;;;;;;;5107865;28;21032;-67
2021/11/12 10:13:31;;;;;;;27.50;13.73;;;;;;;;;;5109763;28;20466;-67
2021/11/12 10:16:16;;;;;;;25.57;13.67;;;;;;;;;;5106717;28;20551;-66
2021/11/12 10:19:09;;;;;;;26.83;12.67;;;;;;;;;;5098688;28;20458;-67
2021/11/12 10:21:40;;;;;;;29.07;12.37;;;;;;;;;;5098853;28;20436;-67
2021/11/12 10:24:15;;;;;;;25.93;12.73;;;;;;;;;;5099038;28;20431;-66
2021/11/12 10:26:44;;;;;;;28.67;13.23;;;;;;;;;;5095643;28;20915;-66
2021/11/12 10:29:13;;;;;;;23.73;11.83;;;;;;;;;;5099795;28;20538;-66
2021/11/12 10:31:44;;;;;;;26.10;11.87;;;;;;;;;;5102320;28;20521;-70
2021/11/12 10:34:15;;;;;;;28.20;12.53;;;;;;;;;;5107350;28;20700;-68
2021/11/12 10:36:52;;;;;;;24.83;12.53;;;;;;;;;;5108630;28;20202;-70
2021/11/12 10:39:37;;;;;;;28.60;13.00;;;;;;;;;;5101573;28;20218;-68
2021/11/12 10:42:06;;;;;;;23.80;11.90;;;;;;;;;;5099535;28;20641;-69
2021/11/12 10:44:39;;;;;;;28.07;14.17;;;;;;;;;;5099790;28;20230;-72
2021/11/12 10:47:08;;;;;;;27.70;12.53;;;;;;;;;;5097596;28;20440;-72
2021/11/12 10:49:38;;;;;;;25.07;12.63;;;;;;;;;;5099325;28;21002;-72
2021/11/12 10:52:11;;;;;;;19.93;10.80;;;;;;;;;;5099802;28;20469;-68
2021/11/12 10:54:42;;;;;;;24.00;11.90;;;;;;;;;;5099747;28;20546;-69
2021/11/12 10:57:11;;;;;;;25.03;11.97;;;;;;;;;;5096536;28;20540;-69
2021/11/12 10:59:52;;;;;;;26.77;13.17;;;;;;;;;;5084648;28;20456;-69
2021/11/12 11:02:27;;;;;;;24.60;12.97;;;;;;;;;;5098112;28;20471;-69
2021/11/12 11:04:59;;;;;;;26.47;13.30;;;;;;;;;;5099510;28;20530;-69
2021/11/12 11:07:29;;;;;;;28.73;12.73;;;;;;;;;;5100059;28;20523;-70
2021/11/12 11:09:58;;;;;;;25.90;13.53;;;;;;;;;;5100070;28;20510;-69
2021/11/12 11:12:43;;;;;;;29.10;13.83;;;;;;;;;;5100349;28;20471;-69
2021/11/12 11:15:16;;;;;;;26.90;12.57;;;;;;;;;;5099664;28;20506;-70
2021/11/12 11:17:46;;;;;;;27.30;12.30;;;;;;;;;;5099701;28;20527;-69
2021/11/12 11:20:17;;;;;;;22.87;11.93;;;;;;;;;;5099561;28;20477;-69
2021/11/12 11:22:47;;;;;;;29.50;12.97;;;;;;;;;;5099444;28;20444;-69
2021/11/12 11:25:16;;;;;;;30.60;12.50;;;;;;;;;;5099315;28;20533;-69
2021/11/12 11:27:45;;;;;;;23.63;12.23;;;;;;;;;;5098910;28;20997;-69
2021/11/12 11:30:13;;;;;;;29.97;14.47;;;;;;;;;;5099348;28;20598;-69
2021/11/12 11:32:42;;;;;;;23.70;12.27;;;;;;;;;;5099074;28;20969;-69
2021/11/12 11:35:10;;;;;;;26.00;13.37;;;;;;;;;;5099169;28;20596;-69
2021/11/12 11:37:38;;;;;;;28.53;13.70;;;;;;;;;;5097931;28;20503;-69
2021/11/12 11:40:10;;;;;;;28.93;12.37;;;;;;;;;;5097195;28;20507;-69
2021/11/12 11:42:39;;;;;;;22.13;12.70;;;;;;;;;;5098708;28;20471;-69
2021/11/12 11:45:08;;;;;;;28.57;13.27;;;;;;;;;;5097189;28;20471;-69
2021/11/12 11:47:36;;;;;;;26.00;13.27;;;;;;;;;;5092488;28;20538;-69
2021/11/12 11:50:19;;;;;;;26.83;11.53;;;;;;;;;;5099136;28;20872;-69
2021/11/12 11:52:47;;;;;;;24.13;11.40;;;;;;;;;;5102853;28;20490;-69
2021/11/12 11:55:30;;;;;;;22.90;11.47;;;;;;;;;;5098054;28;20480;-69
2021/11/12 11:58:20;;;;;;;21.10;10.53;;;;;;;;;;5098181;28;20543;-68
2021/11/12 12:00:48;;;;;;;19.73;11.20;;;;;;;;;;5098127;28;20499;-69
2021/11/12 12:03:23;;;;;;;20.03;10.80;;;;;;;;;;5085497;28;20514;-68
2021/11/12 12:06:02;;;;;;;21.13;10.43;;;;;;;;;;5098720;28;20529;-69
2021/11/12 12:08:31;;;;;;;18.00;10.60;;;;;;;;;;5088540;28;20500;-69
2021/11/12 12:11:14;;;;;;;21.00;11.07;;;;;;;;;;5098556;28;20497;-69
2021/11/12 12:13:43;;;;;;;20.43;11.13;;;;;;;;;;5098775;28;20475;-68
2021/11/12 12:16:11;;;;;;;19.63;11.20;;;;;;;;;;5098365;28;20548;-69
2021/11/12 12:18:46;;;;;;;24.87;10.83;;;;;;;;;;5098362;28;20463;-68
2021/11/12 12:21:23;;;;;;;16.23;10.90;;;;;;;;;;5098273;28;20477;-68
2021/11/12 12:33:10;;;;;;;21.40;10.87;;;;;;;;;;5097524;28;20459;-69
2021/11/12 12:35:56;;;;;;;14.87;9.30;;;;;;;;;;5096380;28;20528;-71
2021/11/12 13:21:18;;;;;;;22.63;13.07;;;;;;;;;;5114345;28;20288;-67
2021/11/12 13:24:03;;;;;;;21.43;11.27;;;;;;;;;;5121976;28;20213;-65
2021/11/12 13:26:57;;;;;;;23.70;12.07;;;;;;;;;;5124175;28;20196;-65
2021/11/12 13:29:25;;;;;;;20.67;11.93;;;;;;;;;;5116374;28;20490;-64
2021/11/12 13:31:58;;;;;;;22.77;12.50;;;;;;;;;;5123290;28;20227;-64
2021/11/12 13:34:29;;;;;;;24.27;12.80;;;;;;;;;;5103850;28;20432;-64
2021/11/12 13:36:57;;;;;;;22.90;13.27;;;;;;;;;;5101233;28;20515;-65
2021/11/12 13:39:25;;;;;;;24.97;11.63;;;;;;;;;;5100804;28;20535;-65
2021/11/12 13:41:55;;;;;;;22.57;11.47;;;;;;;;;;5104673;28;20485;-66
2021/11/12 13:44:24;;;;;;;22.67;12.53;;;;;;;;;;5114230;28;20478;-66
2021/11/12 13:46:53;;;;;;;22.00;12.80;;;;;;;;;;5108401;28;20990;-67
2021/11/12 13:49:25;;;;;;;20.70;11.63;;;;;;;;;;5109252;28;20521;-66
2021/11/12 13:51:59;;;;;;;20.50;11.17;;;;;;;;;;5113732;28;20680;-67
2021/11/12 13:54:27;;;;;;;23.00;12.30;;;;;;;;;;5106250;28;20201;-66
2021/11/12 13:56:56;;;;;;;26.03;12.00;;;;;;;;;;5091029;28;20224;-65
2021/11/12 13:59:24;;;;;;;23.47;12.97;;;;;;;;;;5084741;28;20717;-65
2021/11/12 14:02:01;;;;;;;20.73;11.93;;;;;;;;;;5087926;28;20229;-64
2021/11/12 14:04:32;;;;;;;22.23;11.40;;;;;;;;;;5086311;28;20479;-65
2021/11/12 14:07:01;;;;;;;22.67;12.50;;;;;;;;;;5086689;28;20407;-65
2021/11/12 14:09:34;;;;;;;24.73;12.53;;;;;;;;;;5084756;28;20617;-64
2021/11/12 14:12:06;;;;;;;23.47;13.00;;;;;;;;;;5088386;28;20240;-64
2021/11/12 14:14:35;;;;;;;21.40;11.33;;;;;;;;;;5085402;28;20479;-67
2021/11/12 14:17:17;;;;;;;24.37;12.80;;;;;;;;;;5086142;28;20289;-67
2021/11/12 14:19:59;;;;;;;21.83;12.17;;;;;;;;;;5087881;28;20542;-66
2021/11/12 14:22:39;;;;;;;25.70;14.07;;;;;;;;;;5085985;28;20280;-66
2021/11/12 14:25:15;;;;;;;22.33;12.60;;;;;;;;;;5085882;28;20230;-67
2021/11/12 14:27:51;;;;;;;22.07;11.43;;;;;;;;;;5085405;28;20277;-67
2021/11/12 14:33:22;;;;;;;21.73;13.50;;;;;;;;;;5027240;28;20523;-67
2021/11/12 14:36:14;;;;;;;21.57;12.27;;;;;;;;;;5075557;28;20472;-67
2021/11/12 14:38:53;;;;;;;22.70;11.40;;;;;;;;;;5087811;28;20505;-67
2021/11/12 14:47:01;;;;;;;21.27;11.67;;;;;;;;;;5097300;28;20514;-67
2021/11/12 14:49:32;;;;;;;23.40;12.33;;;;;;;;;;5098716;28;20232;-67
2021/11/12 14:52:03;;;;;;;26.37;12.03;;;;;;;;;;5099000;28;20241;-67
2021/11/12 14:54:38;;;;;;;24.70;13.33;;;;;;;;;;5099049;28;20202;-67
2021/11/12 14:57:20;;;;;;;20.60;12.03;;;;;;;;;;5099075;28;20648;-67
2021/11/12 14:59:50;;;;;;;24.97;12.03;;;;;;;;;;5099160;28;20232;-67
2021/11/12 15:02:19;;;;;;;29.37;12.83;;;;;;;;;;5099232;28;20288;-67
2021/11/12 15:04:47;;;;;;;26.50;12.33;;;;;;;;;;5098376;28;20225;-67
2021/11/12 15:07:21;;;;;;;24.90;13.93;;;;;;;;;;5091507;28;20233;-67
2021/11/12 15:09:51;;;;;;;28.57;12.37;;;;;;;;;;5098275;28;20289;-67
2021/11/12 15:12:20;;;;;;;22.20;12.73;;;;;;;;;;5084879;28;20731;-67
2021/11/12 15:14:54;;;;;;;25.60;14.47;;;;;;;;;;5099007;28;20284;-67
2021/11/12 15:17:23;;;;;;;27.13;15.50;;;;;;;;;;5098630;28;20301;-67
2021/11/12 15:19:51;;;;;;;24.23;15.43;;;;;;;;;;5098620;28;20228;-67
2021/11/12 15:22:32;;;;;;;28.13;15.03;;;;;;;;;;5098586;28;20288;-67
2021/11/12 15:25:11;;;;;;;24.47;13.50;;;;;;;;;;5098397;28;20269;-68
2021/11/12 15:27:48;;;;;;;28.60;13.37;;;;;;;;;;5098546;28;20574;-67
2021/11/12 15:30:20;;;;;;;24.63;12.67;;;;;;;;;;5097860;28;20211;-67
2021/11/12 15:32:51;;;;;;;21.73;13.17;;;;;;;;;;5089995;28;20312;-67
2021/11/12 15:35:22;;;;;;;26.30;12.47;;;;;;;;;;5098405;28;20229;-67
2021/11/12 15:37:55;;;;;;;19.53;12.03;;;;;;;;;;5098267;28;20526;-67
2021/11/12 15:40:27;;;;;;;20.93;11.50;;;;;;;;;;5098427;28;20648;-67
2021/11/12 15:43:04;;;;;;;19.90;11.97;;;;;;;;;;5098350;28;20319;-67
2021/11/12 15:45:49;;;;;;;21.03;12.03;;;;;;;;;;5098447;28;20293;-67
2021/11/12 15:48:18;;;;;;;19.27;11.47;;;;;;;;;;5084336;28;20464;-67
2021/11/12 15:50:53;;;;;;;20.93;11.17;;;;;;;;;;5098256;28;20236;-67
2021/11/12 15:53:25;;;;;;;23.40;11.60;;;;;;;;;;5098128;28;20273;-67
2021/11/12 15:56:24;;;;;;;20.00;12.07;;;;;;;;;;5098036;28;20292;-67
2021/11/12 15:58:58;;;;;;;20.43;10.63;;;;;;;;;;5098425;28;20303;-67
2021/11/12 16:09:53;;;;;;;20.23;11.13;;;;;;;;;;5041696;28;20525;-67
2021/11/12 16:15:28;;;;;;;23.40;12.40;;;;;;;;;;5097580;28;20240;-67
2021/11/12 16:18:05;;;;;;;22.23;11.57;;;;;;;;;;5097641;28;20261;-67
2021/11/12 16:20:48;;;;;;;22.50;11.23;;;;;;;;;;5097987;28;20264;-67
2021/11/12 16:26:09;;;;;;;24.20;13.47;;;;;;;;;;5069914;28;20983;-67
2021/11/12 16:28:54;;;;;;;23.93;13.43;;;;;;;;;;5098069;28;20307;-67
2021/11/12 16:31:23;;;;;;;20.80;12.13;;;;;;;;;;5090785;28;20635;-67
2021/11/12 16:33:52;;;;;;;20.17;11.43;;;;;;;;;;5095607;28;20478;-67
2021/11/12 16:36:20;;;;;;;20.70;11.67;;;;;;;;;;5096135;28;20479;-67
2021/11/12 16:38:49;;;;;;;21.60;12.23;;;;;;;;;;5097581;28;20603;-67
2021/11/12 16:41:20;;;;;;;22.17;11.97;;;;;;;;;;5097940;28;20526;-67
2021/11/12 16:46:44;;;;;;;18.77;11.27;;;;;;;;;;5095657;28;20554;-67
2021/11/12 16:49:17;;;;;;;16.83;10.93;;;;;;;;;;5097675;28;20467;-67
2021/11/12 16:52:11;;;;;;;18.33;10.77;;;;;;;;;;5097259;28;20870;-67
2021/11/12 16:54:53;;;;;;;20.33;11.00;;;;;;;;;;5097579;28;20440;-67
2021/11/12 16:57:39;;;;;;;20.57;12.17;;;;;;;;;;5097494;28;20526;-67
2021/11/12 17:00:22;;;;;;;17.40;10.40;;;;;;;;;;5098167;28;20518;-67
2021/11/12 17:02:52;;;;;;;19.27;11.87;;;;;;;;;;5096705;28;20467;-67
2021/11/12 17:05:25;;;;;;;22.43;12.00;;;;;;;;;;5095749;28;20563;-67
2021/11/12 17:08:05;;;;;;;18.47;10.97;;;;;;;;;;5091215;28;20498;-67
2021/11/12 17:10:49;;;;;;;20.63;11.07;;;;;;;;;;5097188;28;20531;-67
2021/11/12 17:13:33;;;;;;;19.43;11.70;;;;;;;;;;5097025;28;20868;-67
2021/11/12 17:16:29;;;;;;;23.30;12.37;;;;;;;;;;5097145;28;20531;-67
2021/11/12 17:19:12;;;;;;;19.00;11.77;;;;;;;;;;5097348;28;20485;-66
2021/11/12 17:46:49;;;;;;;27.87;13.50;;;;;;;;;;5100690;28;21029;-65
2021/11/12 17:49:36;;;;;;;23.33;12.40;;;;;;;;;;5100627;28;20866;-65
2021/11/12 17:52:25;;;;;;;22.93;12.10;;;;;;;;;;5101155;28;20469;-64
2021/11/12 18:03:14;;;;;;;23.90;14.07;;;;;;;;;;5088076;28;20467;-65
2021/11/12 18:05:45;;;;;;;27.57;14.60;;;;;;;;;;5088118;28;20544;-65
2021/11/12 21:45:53;;;;;;;40.80;18.70;;;;;;;;;;5100868;28;20485;-64
2021/11/12 21:48:21;;;;;;;32.90;16.60;;;;;;;;;;5100682;28;20849;-64
2021/11/12 21:50:53;;;;;;;31.80;16.70;;;;;;;;;;5100887;28;20446;-65
2021/11/12 21:53:22;;;;;;;36.20;18.80;;;;;;;;;;5100723;28;20439;-65
2021/11/12 21:55:50;;;;;;;41.90;18.20;;;;;;;;;;5100498;28;20817;-65
2021/11/12 21:58:18;;;;;;;40.20;20.23;;;;;;;;;;5100564;28;20862;-65
2021/11/12 22:00:47;;;;;;;38.73;19.00;;;;;;;;;;5100424;28;20447;-65
2021/11/12 22:03:15;;;;;;;38.90;18.53;;;;;;;;;;5100859;28;20806;-65
2021/11/12 22:05:44;;;;;;;36.90;20.50;;;;;;;;;;5100850;28;20481;-65
2021/11/12 22:08:13;;;;;;;38.37;19.10;;;;;;;;;;5100807;28;20464;-64
2021/11/12 22:10:41;;;;;;;40.37;19.43;;;;;;;;;;5100543;28;20448;-65
2021/11/12 22:13:09;;;;;;;34.07;19.13;;;;;;;;;;5100213;28;20435;-65
2021/11/12 22:15:39;;;;;;;45.13;20.00;;;;;;;;;;5100016;28;20457;-65
2021/11/12 22:18:08;;;;;;;42.67;21.37;;;;;;;;;;5099918;28;20546;-65
2021/11/12 22:20:36;;;;;;;40.70;20.27;;;;;;;;;;5100313;28;20501;-65
2021/11/12 22:23:04;;;;;;;42.10;19.87;;;;;;;;;;5100019;28;20448;-65
2021/11/12 22:25:34;;;;;;;44.43;19.90;;;;;;;;;;5100380;28;20530;-65
2021/11/12 22:28:02;;;;;;;39.80;20.90;;;;;;;;;;5088633;28;21070;-65
2021/11/12 22:30:30;;;;;;;43.30;19.30;;;;;;;;;;5099806;28;20831;-64
2021/11/12 22:32:58;;;;;;;47.20;21.67;;;;;;;;;;5099968;28;20439;-64
2021/11/12 22:35:26;;;;;;;43.47;20.97;;;;;;;;;;5099654;28;20443;-64
2021/11/12 22:37:54;;;;;;;40.93;18.53;;;;;;;;;;5099261;28;20440;-64
2021/11/12 22:40:22;;;;;;;43.83;21.33;;;;;;;;;;5099764;28;20447;-64
2021/11/12 22:42:51;;;;;;;36.40;19.13;;;;;;;;;;5099455;28;20971;-65
2021/11/12 22:45:19;;;;;;;40.17;18.53;;;;;;;;;;5099601;28;20454;-65
2021/11/12 22:47:52;;;;;;;44.90;20.43;;;;;;;;;;5099742;28;20565;-65
2021/11/12 22:50:21;;;;;;;35.20;18.50;;;;;;;;;;5099712;28;20439;-64